Somerset, Massachusetts
Current Conditions -  °F | °C
As of 7:53 AM on Saturday 25 Oct 2014 (Local Time) from KEWB Reporting Station
Clear Clear  
Wind Chill: 45°   Ceiling: Unl
Heat Index: 45°   Visibility: 10mi
Dew Point: 42°   Wind: 3mph
Humidity: 90%   Direction: 200°SSW
Pressure: 29.78"   Gusts: NA
Location:  41.75°N, 71.14°W
Report Text: KEWB 251153Z 20003KT 10SM CLR 07/06 A2978 RMK AO2 SLP083 T00720056 10078 20050 51007
Loading
Personal Weather Stations






























Interactive Weather Map New forecast layout! Learn more

10-Day Weather Forecast

Advertisements
Track Severe Weather on mobile